Time;durP1;ratioP1;P1;durP2;ratioP2;P2;SDS_P1;SDS_P2;PMS_P1;PMS_P2;Temp;Humidity;BMP_temperature;BMP_pressure;BME280_temperature;BME280_humidity;BME280_pressure;Samples;Min_cycle;Max_cycle;Signal;HPM_P1;HPM_P2
2021/08/14 00:01:35;;;;;;;0.50;0.40;;;15.70;99.90;;;;;;5036328;28;20446;-83
2021/08/14 00:04:02;;;;;;;0.50;0.40;;;15.70;99.90;;;;;;5037659;28;20469;-85
2021/08/14 00:06:29;;;;;;;0.50;0.40;;;15.60;99.90;;;;;;5037404;28;20493;-84
2021/08/14 00:08:55;;;;;;;0.50;0.30;;;15.60;99.90;;;;;;5037612;28;20807;-85
2021/08/14 00:11:24;;;;;;;0.50;0.30;;;15.60;99.90;;;;;;5037180;28;20446;-86
2021/08/14 00:13:51;;;;;;;0.50;0.40;;;15.60;99.90;;;;;;5037812;28;20804;-85
2021/08/14 00:16:18;;;;;;;0.50;0.40;;;15.60;99.90;;;;;;5037274;28;20462;-85
2021/08/14 00:18:44;;;;;;;0.50;0.30;;;15.70;99.90;;;;;;5037443;28;20796;-84
2021/08/14 00:21:11;;;;;;;0.50;0.40;;;15.70;99.90;;;;;;5037052;28;20442;-82
2021/08/14 00:23:38;;;;;;;0.50;0.33;;;15.70;99.90;;;;;;5037235;28;20466;-85
2021/08/14 00:26:04;;;;;;;0.50;0.40;;;15.70;99.90;;;;;;5036778;28;20482;-84
2021/08/14 00:28:33;;;;;;;0.50;0.30;;;15.70;99.90;;;;;;5036896;28;20462;-85
2021/08/14 00:30:59;;;;;;;0.50;0.30;;;15.60;99.90;;;;;;5036647;28;20442;-84
2021/08/14 00:33:26;;;;;;;0.50;0.30;;;15.70;99.90;;;;;;5037172;28;20447;-84
2021/08/14 00:35:53;;;;;;;0.50;0.30;;;15.70;99.90;;;;;;5036484;28;20466;-85
2021/08/14 00:38:20;;;;;;;0.50;0.30;;;15.60;99.90;;;;;;5036666;28;20447;-85
2021/08/14 00:40:46;;;;;;;0.50;0.30;;;15.60;99.90;;;;;;5036348;28;20438;-84
2021/08/14 00:43:13;;;;;;;0.50;0.30;;;15.60;99.90;;;;;;5036201;28;20457;-84
2021/08/14 00:45:42;;;;;;;0.50;0.40;;;15.60;99.90;;;;;;5036497;28;20485;-83
2021/08/14 00:48:10;;;;;;;0.50;0.40;;;15.60;99.90;;;;;;5036507;28;20450;-84
2021/08/14 00:50:37;;;;;;;0.50;0.30;;;15.60;99.90;;;;;;5036259;28;20447;-84
2021/08/14 00:53:05;;;;;;;0.50;0.40;;;15.50;99.90;;;;;;5036229;28;20442;-86
2021/08/14 00:55:32;;;;;;;0.50;0.40;;;15.50;99.90;;;;;;5036404;28;20441;-84
2021/08/14 00:57:59;;;;;;;0.50;0.30;;;15.40;99.90;;;;;;5036451;28;20449;-84
2021/08/14 01:00:26;;;;;;;0.50;0.40;;;15.50;99.90;;;;;;5036372;28;20453;-85
2021/08/14 01:02:54;;;;;;;0.50;0.30;;;15.50;99.90;;;;;;5035625;28;20457;-85
2021/08/14 01:05:21;;;;;;;0.50;0.30;;;15.60;99.90;;;;;;5036693;28;20480;-85
2021/08/14 01:07:50;;;;;;;0.50;0.40;;;15.60;99.90;;;;;;5035907;28;20991;-84
2021/08/14 01:10:17;;;;;;;0.60;0.40;;;15.60;99.90;;;;;;5035424;28;20473;-84
2021/08/14 01:12:44;;;;;;;0.50;0.30;;;15.40;99.90;;;;;;5036454;28;20438;-82
2021/08/14 01:15:11;;;;;;;0.50;0.30;;;15.40;99.90;;;;;;5038646;28;20434;-85
2021/08/14 01:17:39;;;;;;;0.50;0.30;;;15.30;99.90;;;;;;5040171;28;20465;-84
2021/08/14 01:20:09;;;;;;;0.50;0.30;;;15.30;99.90;;;;;;5039297;28;20439;-85
2021/08/14 01:22:37;;;;;;;0.50;0.30;;;15.40;99.90;;;;;;5047847;28;20485;-83
2021/08/14 01:25:05;;;;;;;0.50;0.40;;;15.30;99.90;;;;;;5048571;28;20438;-85
2021/08/14 01:27:34;;;;;;;1.77;1.67;;;15.30;99.90;;;;;;5041708;28;20983;-85
2021/08/14 01:30:01;;;;;;;0.50;0.40;;;15.30;99.90;;;;;;5041034;28;20452;-85
2021/08/14 01:32:28;;;;;;;0.50;0.40;;;15.30;99.90;;;;;;5041249;28;20510;-85
2021/08/14 01:34:55;;;;;;;0.50;0.40;;;15.20;99.90;;;;;;5040483;28;20445;-85
2021/08/14 01:37:22;;;;;;;0.50;0.30;;;15.30;99.90;;;;;;5040800;28;20458;-85
2021/08/14 01:39:48;;;;;;;0.50;0.40;;;15.30;99.90;;;;;;5041325;28;20819;-85
2021/08/14 01:42:15;;;;;;;0.50;0.40;;;15.20;99.90;;;;;;5041030;28;20442;-85
2021/08/14 01:44:44;;;;;;;0.50;0.40;;;15.30;99.90;;;;;;5039834;28;20457;-85
2021/08/14 01:47:11;;;;;;;0.50;0.40;;;15.20;99.90;;;;;;5039939;28;20470;-84
2021/08/14 01:49:38;;;;;;;0.50;0.30;;;15.20;99.90;;;;;;5040261;28;20974;-84
2021/08/14 01:52:13;;;;;;;0.50;0.47;;;15.40;99.90;;;;;;5040492;28;20473;-86
2021/08/14 01:54:40;;;;;;;0.50;0.40;;;15.40;99.90;;;;;;5039634;28;20457;-85
2021/08/14 01:57:08;;;;;;;0.50;0.30;;;15.50;99.90;;;;;;5041330;28;20852;-84
2021/08/14 01:59:35;;;;;;;0.50;0.40;;;15.50;99.90;;;;;;5039844;28;20450;-85
2021/08/14 02:02:04;;;;;;;0.50;0.40;;;15.60;99.90;;;;;;5039730;28;20438;-85
2021/08/14 02:04:31;;;;;;;0.50;0.30;;;15.70;99.90;;;;;;5040338;28;20440;-85
2021/08/14 02:06:58;;;;;;;0.50;0.40;;;15.70;99.90;;;;;;5040299;28;20577;-84
2021/08/14 02:09:25;;;;;;;0.50;0.30;;;15.70;99.90;;;;;;5040296;28;20466;-85
2021/08/14 02:11:52;;;;;;;0.60;0.60;;;15.70;99.90;;;;;;5039931;28;20443;-84
2021/08/14 02:14:19;;;;;;;0.50;0.40;;;15.70;99.90;;;;;;5039847;28;20449;-85
2021/08/14 02:16:45;;;;;;;0.50;0.30;;;15.70;99.90;;;;;;5040276;28;20454;-84
2021/08/14 02:19:13;;;;;;;0.50;0.40;;;15.70;99.90;;;;;;5040158;28;20435;-86
2021/08/14 02:21:40;;;;;;;0.97;0.97;;;15.70;99.90;;;;;;5039422;28;20465;-85
2021/08/14 02:24:07;;;;;;;0.50;0.30;;;15.70;99.90;;;;;;5040052;28;20442;-84
2021/08/14 02:26:34;;;;;;;0.50;0.30;;;15.70;99.90;;;;;;5038984;28;20568;-84
2021/08/14 02:29:01;;;;;;;0.50;0.40;;;15.70;99.90;;;;;;5039708;28;20438;-85
2021/08/14 02:31:27;;;;;;;0.60;0.53;;;15.70;99.90;;;;;;5039449;28;20448;-85
2021/08/14 02:33:54;;;;;;;0.50;0.40;;;15.70;99.90;;;;;;5039501;28;20446;-85
2021/08/14 02:36:22;;;;;;;0.50;0.40;;;15.70;99.90;;;;;;5039602;28;20463;-85
2021/08/14 02:38:49;;;;;;;0.60;0.60;;;15.60;99.90;;;;;;5040168;28;20439;-86
2021/08/14 02:41:16;;;;;;;0.50;0.40;;;15.60;99.90;;;;;;5039202;28;20457;-85
2021/08/14 02:43:43;;;;;;;0.50;0.30;;;15.60;99.90;;;;;;5057466;22;20503;-84
2021/08/14 02:46:09;;;;;;;0.50;0.40;;;15.60;99.90;;;;;;5041784;28;20855;-83
2021/08/14 02:48:36;;;;;;;0.50;0.30;;;15.60;99.90;;;;;;5057846;28;20450;-85
2021/08/14 02:51:03;;;;;;;0.50;0.40;;;15.60;99.90;;;;;;5058092;28;21076;-86
2021/08/14 02:53:31;;;;;;;0.77;0.77;;;15.40;99.90;;;;;;5058323;28;20477;-84
2021/08/14 02:55:58;;;;;;;0.50;0.50;;;15.40;99.90;;;;;;5058336;28;20440;-84
2021/08/14 02:58:25;;;;;;;0.60;0.60;;;15.40;99.90;;;;;;5057350;28;20452;-84
2021/08/14 03:00:51;;;;;;;0.50;0.40;;;15.40;99.90;;;;;;5057988;28;20438;-84
2021/08/14 03:03:18;;;;;;;0.60;0.60;;;15.40;99.90;;;;;;5057390;28;20461;-86
2021/08/14 03:05:45;;;;;;;0.50;0.40;;;15.40;99.90;;;;;;5056788;28;20472;-85
2021/08/14 03:08:12;;;;;;;0.50;0.40;;;15.40;99.90;;;;;;5056688;28;20803;-86
2021/08/14 03:10:41;;;;;;;0.50;0.40;;;15.40;99.90;;;;;;5056025;28;20444;-85
2021/08/14 03:13:09;;;;;;;0.50;0.40;;;15.40;99.90;;;;;;5057189;28;20480;-86
2021/08/14 03:15:36;;;;;;;0.60;0.40;;;15.40;99.90;;;;;;5057663;28;20434;-86
2021/08/14 03:18:03;;;;;;;0.80;0.80;;;15.30;99.90;;;;;;5056609;28;20450;-85
2021/08/14 03:20:30;;;;;;;0.50;0.40;;;15.30;99.90;;;;;;5056788;28;20437;-85
2021/08/14 03:22:57;;;;;;;1.10;1.10;;;15.30;99.90;;;;;;5059695;28;20468;-85
2021/08/14 03:25:24;;;;;;;0.50;0.30;;;15.30;99.90;;;;;;5059718;28;20448;-88
2021/08/14 03:27:52;;;;;;;0.60;0.50;;;15.30;99.90;;;;;;5060743;28;20436;-87
2021/08/14 03:30:20;;;;;;;1.27;1.00;;;15.30;99.90;;;;;;5060907;28;20459;-85
2021/08/14 03:32:47;;;;;;;0.50;0.30;;;15.30;99.90;;;;;;5056988;28;20500;-85
2021/08/14 03:35:14;;;;;;;0.50;0.40;;;15.30;99.90;;;;;;5056033;28;20541;-87
2021/08/14 03:37:42;;;;;;;0.60;0.50;;;15.30;99.90;;;;;;5054708;28;20437;-87
2021/08/14 03:40:10;;;;;;;0.50;0.40;;;15.30;99.90;;;;;;5054692;28;20449;-85
2021/08/14 03:42:36;;;;;;;0.60;0.60;;;15.30;99.90;;;;;;5054731;28;20479;-86
2021/08/14 03:45:06;;;;;;;0.50;0.40;;;15.30;99.90;;;;;;5055120;28;20452;-85
2021/08/14 03:47:32;;;;;;;0.60;0.50;;;15.20;99.90;;;;;;5054748;28;20485;-86
2021/08/14 03:49:59;;;;;;;0.50;0.40;;;15.20;99.90;;;;;;5054576;28;20437;-88
2021/08/14 03:52:26;;;;;;;0.50;0.30;;;15.20;99.90;;;;;;5054422;28;20453;-85
2021/08/14 03:54:53;;;;;;;0.50;0.40;;;15.20;99.90;;;;;;5054803;28;20442;-87
2021/08/14 03:57:20;;;;;;;0.50;0.37;;;15.20;99.90;;;;;;5056255;28;20434;-86
2021/08/14 03:59:46;;;;;;;1.33;1.23;;;15.10;99.90;;;;;;5054724;28;20437;-86
2021/08/14 04:02:15;;;;;;;0.50;0.40;;;15.20;99.90;;;;;;5056081;28;20464;-85
2021/08/14 04:04:41;;;;;;;0.50;0.40;;;15.20;99.90;;;;;;5060728;28;20932;-88
2021/08/14 04:07:08;;;;;;;0.50;0.40;;;15.20;99.90;;;;;;5053976;28;20565;-88
2021/08/14 04:09:35;;;;;;;1.00;0.60;;;15.20;99.90;;;;;;5053642;28;20440;-87
2021/08/14 04:12:02;;;;;;;0.97;0.97;;;15.30;99.90;;;;;;5053541;28;20453;-88
2021/08/14 04:14:28;;;;;;;0.50;0.40;;;15.30;99.90;;;;;;5054199;28;20894;-88
2021/08/14 04:16:55;;;;;;;0.50;0.40;;;15.30;99.90;;;;;;5053665;28;20433;-86
2021/08/14 04:19:23;;;;;;;0.67;0.60;;;15.30;99.90;;;;;;5054100;28;20437;-88
2021/08/14 04:21:50;;;;;;;0.70;0.70;;;15.30;99.90;;;;;;5053786;28;20452;-88
2021/08/14 04:24:17;;;;;;;0.50;0.40;;;15.30;99.90;;;;;;5053405;28;20441;-88
2021/08/14 04:26:44;;;;;;;2.00;1.90;;;15.30;99.90;;;;;;5053768;28;20474;-88
2021/08/14 04:29:11;;;;;;;0.50;0.40;;;15.30;99.90;;;;;;5053512;28;20450;-88
2021/08/14 04:31:37;;;;;;;0.50;0.40;;;15.30;99.90;;;;;;5052861;28;20444;-88
2021/08/14 04:34:04;;;;;;;1.03;0.93;;;15.40;99.90;;;;;;5053262;28;20461;-88
2021/08/14 04:36:32;;;;;;;0.73;0.50;;;15.40;99.90;;;;;;5053858;28;20440;-88
2021/08/14 04:38:59;;;;;;;0.80;0.80;;;15.40;99.90;;;;;;5053474;28;20446;-86
2021/08/14 04:41:26;;;;;;;0.50;0.40;;;15.40;99.90;;;;;;5054324;28;20803;-86
2021/08/14 04:43:53;;;;;;;0.50;0.40;;;15.40;99.90;;;;;;5054538;28;20556;-83
2021/08/14 04:46:20;;;;;;;0.50;0.30;;;15.40;99.90;;;;;;5054569;28;20828;-86
2021/08/14 04:48:47;;;;;;;0.50;0.40;;;15.40;99.90;;;;;;5054803;28;20447;-86
2021/08/14 04:51:13;;;;;;;0.50;0.40;;;15.40;99.90;;;;;;5054158;28;20445;-84
2021/08/14 04:53:41;;;;;;;1.47;1.37;;;15.40;99.90;;;;;;5055460;28;20461;-86
2021/08/14 04:56:08;;;;;;;0.50;0.40;;;15.40;99.90;;;;;;5056702;28;20445;-86
2021/08/14 04:58:35;;;;;;;2.10;2.00;;;15.40;99.90;;;;;;5044506;28;20464;-87
2021/08/14 05:01:02;;;;;;;0.50;0.40;;;15.40;99.90;;;;;;5039587;28;20441;-88
2021/08/14 05:03:28;;;;;;;0.50;0.40;;;15.40;99.90;;;;;;5043725;28;20970;-87
2021/08/14 05:05:56;;;;;;;0.80;0.80;;;15.50;99.90;;;;;;5056882;28;20445;-86
2021/08/14 05:08:23;;;;;;;0.50;0.30;;;15.50;99.90;;;;;;5056448;28;20459;-86
2021/08/14 05:10:51;;;;;;;0.60;0.50;;;15.60;99.90;;;;;;5057629;28;20441;-87
2021/08/14 05:13:18;;;;;;;0.60;0.50;;;15.60;99.90;;;;;;5056189;28;20461;-86
2021/08/14 05:15:45;;;;;;;0.50;0.40;;;15.70;99.90;;;;;;5057161;28;20454;-84
2021/08/14 05:18:12;;;;;;;0.50;0.40;;;15.70;99.90;;;;;;5058294;28;20529;-86
2021/08/14 05:20:39;;;;;;;1.10;0.80;;;15.80;99.90;;;;;;5061901;28;20456;-87
2021/08/14 05:23:05;;;;;;;1.83;1.73;;;15.80;99.90;;;;;;5058989;28;20465;-87
2021/08/14 05:25:32;;;;;;;10.83;1.83;;;15.90;99.90;;;;;;5058586;28;20437;-87
2021/08/14 05:28:00;;;;;;;1.10;0.60;;;16.00;99.90;;;;;;5059086;28;20476;-86
2021/08/14 05:30:27;;;;;;;2.40;0.83;;;16.00;99.90;;;;;;5061240;28;20446;-87
2021/08/14 05:32:54;;;;;;;0.50;0.30;;;16.10;99.90;;;;;;5062423;28;20469;-85
2021/08/14 05:35:21;;;;;;;2.30;1.90;;;16.20;99.90;;;;;;5056691;28;20440;-85
2021/08/14 05:37:48;;;;;;;1.17;0.67;;;16.20;99.90;;;;;;5057847;28;20441;-86
2021/08/14 05:40:15;;;;;;;0.70;0.70;;;16.30;99.90;;;;;;5058158;28;20445;-84
2021/08/14 05:42:42;;;;;;;0.77;0.77;;;16.40;99.90;;;;;;5061755;28;20486;-86
2021/08/14 05:45:11;;;;;;;1.40;1.17;;;16.40;99.90;;;;;;5060519;28;20461;-86
2021/08/14 05:47:38;;;;;;;2.70;0.60;;;16.50;99.90;;;;;;5064975;28;20473;-87
2021/08/14 05:50:05;;;;;;;0.50;0.30;;;16.60;99.90;;;;;;5066767;28;20448;-84
2021/08/14 05:52:32;;;;;;;1.17;1.10;;;16.60;99.90;;;;;;5063581;28;20453;-86
2021/08/14 05:54:59;;;;;;;6.40;2.10;;;16.80;99.90;;;;;;5059868;28;20448;-85
2021/08/14 05:57:26;;;;;;;0.70;0.70;;;16.80;99.90;;;;;;5055552;28;20468;-85
2021/08/14 05:59:52;;;;;;;0.50;0.40;;;16.90;99.90;;;;;;5056034;28;20445;-86
2021/08/14 06:02:20;;;;;;;1.17;1.10;;;17.00;99.90;;;;;;5059456;28;20465;-86
2021/08/14 06:04:47;;;;;;;0.50;0.40;;;17.10;99.90;;;;;;5058768;28;20448;-87
2021/08/14 06:07:14;;;;;;;0.50;0.30;;;17.60;99.90;;;;;;5058648;28;20491;-85
2021/08/14 06:09:41;;;;;;;1.27;1.03;;;18.90;99.90;;;;;;5058134;28;20441;-86
2021/08/14 06:12:10;;;;;;;0.50;0.40;;;20.20;99.90;;;;;;5057630;28;20522;-86
2021/08/14 06:14:36;;;;;;;4.60;1.50;;;21.40;99.90;;;;;;5056952;28;20438;-87
2021/08/14 06:17:03;;;;;;;0.63;0.63;;;22.50;99.90;;;;;;5057331;28;20940;-86
2021/08/14 06:19:32;;;;;;;1.00;0.60;;;23.20;99.90;;;;;;5057337;28;20474;-87
2021/08/14 06:21:58;;;;;;;1.70;1.60;;;24.50;99.90;;;;;;5055931;28;20449;-86
2021/08/14 06:24:25;;;;;;;0.70;0.70;;;25.50;99.90;;;;;;5056591;28;20440;-86
2021/08/14 06:26:52;;;;;;;0.57;0.50;;;25.90;99.90;;;;;;5056496;28;20527;-87
2021/08/14 06:29:19;;;;;;;0.73;0.73;;;26.90;99.90;;;;;;5057152;28;20452;-86
2021/08/14 06:31:46;;;;;;;0.53;0.47;;;27.60;99.90;;;;;;5056604;28;20445;-87
2021/08/14 06:34:12;;;;;;;0.50;0.50;;;28.70;96.50;;;;;;5056808;28;20545;-87
2021/08/14 06:36:41;;;;;;;0.50;0.30;;;29.50;92.90;;;;;;5056322;28;20445;-87
2021/08/14 06:39:07;;;;;;;0.50;0.30;;;29.60;89.90;;;;;;5056843;28;20448;-87
2021/08/14 06:41:34;;;;;;;0.50;0.30;;;30.20;82.60;;;;;;5056623;28;20445;-87
2021/08/14 06:44:01;;;;;;;0.50;0.50;;;30.40;80.50;;;;;;5055602;28;20843;-87
2021/08/14 06:46:28;;;;;;;0.50;0.40;;;30.70;78.00;;;;;;5056302;28;20814;-87
2021/08/14 06:48:55;;;;;;;0.50;0.33;;;31.00;75.50;;;;;;5056692;28;20484;-86
2021/08/14 06:51:21;;;;;;;0.50;0.40;;;31.20;74.20;;;;;;5056605;28;20462;-87
2021/08/14 06:53:50;;;;;;;0.50;0.40;;;31.20;72.10;;;;;;5056103;28;20461;-87
2021/08/14 06:56:16;;;;;;;0.90;0.90;;;31.40;73.60;;;;;;5056089;28;20491;-87
2021/08/14 06:58:43;;;;;;;0.53;0.53;;;32.40;68.90;;;;;;5055915;28;20449;-86
2021/08/14 07:01:10;;;;;;;0.50;0.30;;;31.60;68.30;;;;;;5056867;28;20943;-86
2021/08/14 07:03:37;;;;;;;0.50;0.30;;;30.50;70.30;;;;;;5056191;28;20469;-87
2021/08/14 07:06:04;;;;;;;0.50;0.30;;;30.80;71.50;;;;;;5055422;28;20433;-87
2021/08/14 07:08:30;;;;;;;0.50;0.30;;;31.60;71.20;;;;;;5055853;28;20481;-87
2021/08/14 07:10:58;;;;;;;0.50;0.30;;;31.90;68.00;;;;;;5055673;28;20438;-88
2021/08/14 07:13:25;;;;;;;0.50;0.30;;;31.90;67.90;;;;;;5054533;28;20450;-87
2021/08/14 07:15:52;;;;;;;0.50;0.30;;;32.10;68.60;;;;;;5055420;28;20440;-88
2021/08/14 07:18:18;;;;;;;0.77;0.50;;;33.20;66.90;;;;;;5055678;28;20442;-87
2021/08/14 07:20:45;;;;;;;0.50;0.30;;;33.30;60.80;;;;;;5055605;28;20435;-87
2021/08/14 07:23:12;;;;;;;0.50;0.30;;;32.90;63.80;;;;;;5056156;28;20462;-85
2021/08/14 07:25:39;;;;;;;0.50;0.30;;;33.90;61.00;;;;;;5057076;28;20439;-87
2021/08/14 07:28:07;;;;;;;0.77;0.70;;;34.10;59.80;;;;;;5055431;28;20471;-87
2021/08/14 07:30:34;;;;;;;0.50;0.30;;;33.50;59.20;;;;;;5055157;28;20824;-87
2021/08/14 07:33:00;;;;;;;0.50;0.30;;;33.20;60.00;;;;;;5055555;28;20469;-87
2021/08/14 07:35:27;;;;;;;0.50;0.30;;;32.70;62.00;;;;;;5056185;28;20446;-87
2021/08/14 07:37:54;;;;;;;0.50;0.30;;;32.30;63.10;;;;;;5056246;28;20438;-87
2021/08/14 07:40:23;;;;;;;12.83;0.53;;;31.90;62.50;;;;;;5055775;28;20445;-86
2021/08/14 07:42:50;;;;;;;0.50;0.30;;;32.00;63.00;;;;;;5056084;28;20481;-87
2021/08/14 07:45:18;;;;;;;0.50;0.30;;;32.20;62.10;;;;;;5055540;28;20438;-87
2021/08/14 07:47:47;;;;;;;0.50;0.40;;;33.00;62.10;;;;;;5055249;28;20481;-87
2021/08/14 07:50:18;;;;;;;0.50;0.30;;;33.30;59.60;;;;;;5055520;28;20450;-83
2021/08/14 07:52:45;;;;;;;2.97;1.13;;;33.00;60.30;;;;;;5055242;28;20462;-88
2021/08/14 07:55:12;;;;;;;0.50;0.40;;;33.10;60.20;;;;;;5056000;28;20492;-87
2021/08/14 07:57:40;;;;;;;1.10;0.93;;;32.30;61.20;;;;;;5055676;28;20454;-87
2021/08/14 08:00:09;;;;;;;0.50;0.30;;;32.30;60.40;;;;;;5055669;28;20858;-83
2021/08/14 08:02:37;;;;;;;5.03;0.87;;;32.30;60.20;;;;;;5054820;28;20471;-87
2021/08/14 08:05:05;;;;;;;0.50;0.40;;;32.80;59.60;;;;;;5055326;28;20803;-88
2021/08/14 08:07:32;;;;;;;0.50;0.30;;;33.30;58.80;;;;;;5055062;28;20478;-87
2021/08/14 08:10:01;;;;;;;0.50;0.30;;;34.00;58.10;;;;;;5054837;28;20931;-88
2021/08/14 08:12:28;;;;;;;0.60;0.50;;;34.40;58.50;;;;;;5054342;28;20465;-86
2021/08/14 08:14:55;;;;;;;0.50;0.40;;;33.80;56.80;;;;;;5054583;28;20452;-87
2021/08/14 08:17:22;;;;;;;1.27;1.27;;;34.00;57.60;;;;;;5055505;28;20449;-88
2021/08/14 08:19:50;;;;;;;0.50;0.50;;;33.30;57.30;;;;;;5055195;28;20450;-87
2021/08/14 08:22:17;;;;;;;0.80;0.80;;;33.80;57.60;;;;;;5054287;28;20998;-87
2021/08/14 08:24:43;;;;;;;3.03;0.93;;;33.60;55.70;;;;;;5055325;28;20445;-87
2021/08/14 08:27:10;;;;;;;0.93;0.93;;;32.40;57.10;;;;;;5055886;28;20439;-86
2021/08/14 08:29:38;;;;;;;0.50;0.40;;;31.90;59.70;;;;;;5055495;28;20442;-87
2021/08/14 08:32:06;;;;;;;0.70;0.70;;;31.30;58.60;;;;;;5054225;28;20460;-88
2021/08/14 08:34:33;;;;;;;0.50;0.40;;;31.10;59.30;;;;;;5059283;28;20539;-86
2021/08/14 08:37:01;;;;;;;3.90;1.40;;;31.20;59.60;;;;;;5061297;28;20459;-85
2021/08/14 08:39:28;;;;;;;0.70;0.40;;;31.30;58.50;;;;;;5056160;28;20984;-87
2021/08/14 08:41:56;;;;;;;0.50;0.40;;;31.50;58.20;;;;;;5055455;28;20454;-87
2021/08/14 08:44:23;;;;;;;7.67;2.63;;;32.10;57.80;;;;;;5084470;22;21068;-81
2021/08/14 08:46:50;;;;;;;1.20;0.57;;;31.50;56.50;;;;;;5074556;28;20917;-81
2021/08/14 08:49:19;;;;;;;0.77;0.50;;;30.40;58.90;;;;;;5075203;28;20472;-82
2021/08/14 08:51:47;;;;;;;1.70;1.33;;;30.50;59.00;;;;;;5074554;28;20793;-82
2021/08/14 08:54:16;;;;;;;2.60;2.00;;;29.80;59.40;;;;;;5088000;28;20456;-81
2021/08/14 08:56:43;;;;;;;0.63;0.47;;;29.90;60.50;;;;;;5093848;28;20436;-83
2021/08/14 08:59:11;;;;;;;0.50;0.30;;;30.80;57.10;;;;;;5094692;28;20446;-81
2021/08/14 09:01:38;;;;;;;0.50;0.30;;;30.30;56.60;;;;;;5094994;28;20959;-81
2021/08/14 09:04:26;;;;;;;0.50;0.30;;;31.30;57.10;;;;;;5094874;28;20474;-82
2021/08/14 09:06:54;;;;;;;0.50;0.40;;;32.70;54.70;;;;;;5094817;28;20420;-81
2021/08/14 09:09:27;;;;;;;0.50;0.40;;;32.90;55.20;;;;;;5094267;28;21038;-81
2021/08/14 09:12:00;;;;;;;0.50;0.30;;;32.70;53.80;;;;;;5094840;28;20795;-81
2021/08/14 09:14:28;;;;;;;0.40;0.30;;;33.90;54.20;;;;;;5094090;28;20505;-82
2021/08/14 09:17:05;;;;;;;1.63;1.13;;;34.70;51.60;;;;;;5095019;28;20438;-81
2021/08/14 09:19:32;;;;;;;1.17;0.80;;;34.20;51.00;;;;;;5094621;28;20427;-80
2021/08/14 09:22:12;;;;;;;0.50;0.40;;;33.40;51.70;;;;;;5093915;28;20490;-80
2021/08/14 09:24:41;;;;;;;0.60;0.50;;;32.50;54.00;;;;;;5093904;28;20884;-82
2021/08/14 09:27:10;;;;;;;0.60;0.60;;;31.10;53.70;;;;;;5093989;28;20452;-81
2021/08/14 09:29:39;;;;;;;0.50;0.30;;;31.90;54.40;;;;;;5094516;28;20532;-84
2021/08/14 09:32:09;;;;;;;1.53;1.13;;;33.30;53.90;;;;;;5093927;28;20447;-81
2021/08/14 09:34:40;;;;;;;7.17;0.73;;;34.50;51.50;;;;;;5094189;28;20464;-82
2021/08/14 09:37:09;;;;;;;0.50;0.30;;;34.30;50.50;;;;;;5098127;28;20423;-81
2021/08/14 09:39:52;;;;;;;1.73;0.80;;;33.30;52.20;;;;;;5098404;28;20433;-81
2021/08/14 09:42:19;;;;;;;0.50;0.30;;;34.10;52.30;;;;;;5098229;28;20423;-82
2021/08/14 09:44:46;;;;;;;0.47;0.30;;;34.80;51.60;;;;;;5098033;28;20469;-83
2021/08/14 09:47:32;;;;;;;0.50;0.30;;;34.20;53.20;;;;;;5098322;28;20439;-82
2021/08/14 09:49:59;;;;;;;0.50;0.30;;;34.30;50.80;;;;;;5098336;28;20480;-82
2021/08/14 09:52:27;;;;;;;0.60;0.40;;;34.30;50.80;;;;;;5097493;28;20448;-82
2021/08/14 09:54:56;;;;;;;0.40;0.30;;;34.50;50.40;;;;;;5098233;28;20466;-83
2021/08/14 09:57:25;;;;;;;0.40;0.30;;;34.30;51.40;;;;;;5097563;28;20444;-82
2021/08/14 09:59:53;;;;;;;0.40;0.40;;;34.60;50.30;;;;;;5097587;28;20441;-81
2021/08/14 10:02:23;;;;;;;0.40;0.30;;;35.10;49.00;;;;;;5098838;28;20529;-81
2021/08/14 10:04:51;;;;;;;0.40;0.30;;;34.90;49.10;;;;;;5098656;28;20824;-81
2021/08/14 10:07:18;;;;;;;1.63;0.93;;;34.40;48.00;;;;;;5097049;28;20436;-83
2021/08/14 10:09:46;;;;;;;0.60;0.60;;;33.40;48.80;;;;;;5098336;28;20487;-81
2021/08/14 10:12:16;;;;;;;0.50;0.30;;;33.20;49.50;;;;;;5097841;28;20436;-81
2021/08/14 10:14:44;;;;;;;0.50;0.40;;;33.30;49.70;;;;;;5098348;28;20495;-81
2021/08/14 10:17:12;;;;;;;0.50;0.30;;;32.00;50.00;;;;;;5097600;28;20459;-82
2021/08/14 10:19:39;;;;;;;0.80;0.80;;;32.00;51.90;;;;;;5098046;28;20441;-81
2021/08/14 10:22:07;;;;;;;0.97;0.97;;;32.10;51.40;;;;;;5096788;28;20559;-83
2021/08/14 10:24:36;;;;;;;3.03;0.83;;;32.70;51.50;;;;;;5097302;28;20523;-82
2021/08/14 10:27:07;;;;;;;0.57;0.57;;;31.90;50.80;;;;;;5097226;28;20461;-80
2021/08/14 10:29:46;;;;;;;0.90;0.53;;;31.30;51.70;;;;;;5097348;28;20475;-81
2021/08/14 10:32:49;;;;;;;0.50;0.40;;;31.20;51.60;;;;;;5097261;28;20443;-82
2021/08/14 10:35:48;;;;;;;0.50;0.30;;;31.30;51.80;;;;;;5092572;28;20454;-80
2021/08/14 10:38:38;;;;;;;0.50;0.50;;;31.50;51.30;;;;;;5090036;28;20496;-80
2021/08/14 10:41:06;;;;;;;0.50;0.40;;;31.20;51.00;;;;;;5096962;28;20488;-81
2021/08/14 10:43:58;;;;;;;0.50;0.30;;;30.60;52.50;;;;;;5097477;28;20568;-81
2021/08/14 10:46:54;;;;;;;0.50;0.30;;;31.40;51.40;;;;;;5087335;28;20447;-82
2021/08/14 10:49:37;;;;;;;0.50;0.30;;;31.50;52.20;;;;;;5050441;28;20514;-82
2021/08/14 10:52:16;;;;;;;0.50;0.30;;;32.20;51.70;;;;;;5096956;28;20492;-81
2021/08/14 10:55:06;;;;;;;0.50;0.40;;;33.40;50.20;;;;;;5097316;28;20444;-81
2021/08/14 10:57:58;;;;;;;0.50;0.50;;;33.70;49.50;;;;;;5097460;28;20445;-81
2021/08/14 11:00:27;;;;;;;0.87;0.87;;;32.90;49.30;;;;;;5096399;28;20705;-80
2021/08/14 11:03:09;;;;;;;0.50;0.37;;;32.70;50.10;;;;;;5096567;28;20449;-81
2021/08/14 11:05:37;;;;;;;0.50;0.30;;;32.90;51.50;;;;;;5096405;28;20439;-81
2021/08/14 11:08:21;;;;;;;0.50;0.50;;;33.80;50.20;;;;;;5095804;28;20816;-81
2021/08/14 11:10:48;;;;;;;0.50;0.40;;;33.20;49.10;;;;;;5096162;28;20902;-81
2021/08/14 11:13:50;;;;;;;1.17;0.60;;;32.60;50.50;;;;;;5095883;28;20458;-81
2021/08/14 11:16:54;;;;;;;0.40;0.30;;;32.80;50.60;;;;;;5091086;28;20448;-81
2021/08/14 11:19:53;;;;;;;1.67;0.63;;;32.70;51.80;;;;;;5096258;28;20440;-81
2021/08/14 11:22:25;;;;;;;1.33;1.10;;;33.70;51.90;;;;;;5095209;28;21068;-81
2021/08/14 11:24:52;;;;;;;1.63;1.53;;;33.50;49.50;;;;;;5095716;28;20463;-82
2021/08/14 11:27:22;;;;;;;0.50;0.40;;;33.70;51.20;;;;;;5095947;28;20443;-81
2021/08/14 11:29:52;;;;;;;0.47;0.30;;;34.60;50.30;;;;;;5094968;28;21006;-83
2021/08/14 11:32:19;;;;;;;0.87;0.87;;;34.20;51.70;;;;;;5095534;28;20454;-81
2021/08/14 11:34:45;;;;;;;0.60;0.40;;;33.70;49.10;;;;;;5095541;28;20466;-82
2021/08/14 11:37:14;;;;;;;0.50;0.30;;;32.70;51.00;;;;;;5095775;28;20447;-82
2021/08/14 11:39:40;;;;;;;0.50;0.30;;;33.70;52.60;;;;;;5095792;28;20433;-80
2021/08/14 11:42:11;;;;;;;0.50;0.30;;;34.20;50.90;;;;;;5095671;28;20756;-81
2021/08/14 11:44:38;;;;;;;0.40;0.30;;;34.90;50.10;;;;;;5094847;28;20540;-82
2021/08/14 11:47:07;;;;;;;0.47;0.37;;;35.00;49.40;;;;;;5094961;28;20445;-81
2021/08/14 11:49:52;;;;;;;0.83;0.83;;;34.90;51.00;;;;;;5095388;28;20814;-82
2021/08/14 11:52:23;;;;;;;0.50;0.40;;;35.60;48.90;;;;;;5094911;28;20422;-82
2021/08/14 11:54:57;;;;;;;1.27;0.80;;;34.30;49.90;;;;;;5095627;28;20452;-79
2021/08/14 11:57:29;;;;;;;0.50;0.40;;;33.80;50.40;;;;;;5095414;28;20489;-82
2021/08/14 11:59:55;;;;;;;0.40;0.30;;;34.30;51.00;;;;;;5095885;28;20435;-81
2021/08/14 12:02:25;;;;;;;0.50;0.50;;;34.70;49.30;;;;;;5095195;28;20461;-81
2021/08/14 12:04:52;;;;;;;2.73;1.00;;;35.00;49.60;;;;;;5095663;28;20453;-82
2021/08/14 12:07:21;;;;;;;0.40;0.33;;;34.60;50.30;;;;;;5094271;28;20449;-83
2021/08/14 12:09:48;;;;;;;13.03;1.13;;;34.30;52.50;;;;;;5095675;28;20482;-82
2021/08/14 12:12:18;;;;;;;0.40;0.30;;;34.70;50.30;;;;;;5094500;28;20763;-81
2021/08/14 12:14:45;;;;;;;0.40;0.30;;;34.60;51.30;;;;;;5095351;28;20458;-81
2021/08/14 12:17:11;;;;;;;0.50;0.30;;;35.20;51.60;;;;;;5095420;28;20454;-82
2021/08/14 12:19:48;;;;;;;0.40;0.30;;;35.70;51.00;;;;;;5095126;28;20433;-82
2021/08/14 12:22:16;;;;;;;0.40;0.30;;;36.60;49.80;;;;;;5094606;28;20810;-80
2021/08/14 12:24:45;;;;;;;0.40;0.30;;;36.50;49.70;;;;;;5095524;28;20467;-82
2021/08/14 12:27:26;;;;;;;1.17;1.07;;;36.30;49.70;;;;;;5096494;28;20445;-82
2021/08/14 12:29:53;;;;;;;0.50;0.50;;;35.40;49.10;;;;;;5094628;28;20472;-81
2021/08/14 12:32:20;;;;;;;0.40;0.30;;;34.40;50.80;;;;;;5094705;28;20452;-81
2021/08/14 12:34:46;;;;;;;0.50;0.47;;;34.30;51.20;;;;;;5094712;28;20461;-81
2021/08/14 12:37:15;;;;;;;0.50;0.40;;;33.90;51.80;;;;;;5094620;28;20441;-83
2021/08/14 12:40:06;;;;;;;0.70;0.40;;;33.50;52.30;;;;;;5094757;28;20431;-82
2021/08/14 12:42:34;;;;;;;0.50;0.30;;;33.40;53.30;;;;;;5094323;28;20519;-82
2021/08/14 12:45:17;;;;;;;0.50;0.30;;;33.60;52.80;;;;;;5094232;28;20554;-81
2021/08/14 12:47:44;;;;;;;0.70;0.40;;;34.90;53.30;;;;;;5094655;28;20423;-82
2021/08/14 12:50:26;;;;;;;0.50;0.30;;;34.80;52.60;;;;;;5094069;28;20500;-79
2021/08/14 12:52:58;;;;;;;0.50;0.40;;;34.80;51.60;;;;;;5094283;28;20497;-82
2021/08/14 12:55:35;;;;;;;0.50;0.30;;;34.20;53.00;;;;;;5094450;28;20472;-81